createdAt,value
2017-05-16T06:24:36.901Z,1031.214
2017-05-16T06:27:19.887Z,1031.214
2017-05-16T06:30:13.429Z,1031.217
2017-05-16T06:33:07.508Z,1031.262
2017-05-16T06:36:01.997Z,1031.309
2017-05-16T06:38:56.472Z,1031.317
2017-05-16T06:41:50.984Z,1031.332
2017-05-16T06:44:45.716Z,1031.342
2017-05-16T06:48:25.661Z,1031.329
2017-05-16T06:51:11.523Z,1031.331
2017-05-16T06:54:06.074Z,1031.365
2017-05-16T06:57:00.716Z,1031.390
2017-05-16T06:59:55.289Z,1031.395
2017-05-16T07:02:49.964Z,1031.419
2017-05-16T07:05:44.613Z,1031.408
2017-05-16T07:08:39.361Z,1031.395
2017-05-16T07:11:34.158Z,1031.362
2017-05-16T07:14:28.895Z,1031.338
2017-05-16T07:17:23.773Z,1031.326
2017-05-16T07:20:18.477Z,1031.352
2017-05-16T07:26:07.949Z,1031.344
2017-05-16T07:29:02.636Z,1031.339
2017-05-16T07:31:57.408Z,1031.314
2017-05-16T07:34:52.280Z,1031.249
2017-05-16T07:37:47.119Z,1031.248
2017-05-16T07:40:41.935Z,1031.240
2017-05-16T07:43:36.718Z,1031.200
2017-05-16T07:46:31.572Z,1031.162
2017-05-16T07:49:26.435Z,1031.152
2017-05-16T07:52:21.109Z,1031.179
2017-05-16T07:55:15.894Z,1031.194
2017-05-16T08:01:05.510Z,1031.189
2017-05-16T08:04:00.547Z,1031.187
2017-05-16T08:06:55.465Z,1031.193
2017-05-16T08:09:50.212Z,1031.171
2017-05-16T08:12:45.009Z,1031.164
2017-05-16T08:15:39.885Z,1031.154
2017-05-16T08:18:34.803Z,1031.159
2017-05-16T08:21:29.673Z,1031.177
2017-05-16T08:24:24.531Z,1031.191
2017-05-16T08:27:19.335Z,1031.188
2017-05-16T08:30:14.670Z,1031.201
2017-05-16T08:33:09.569Z,1031.184
2017-05-16T08:36:04.555Z,1031.182
2017-05-16T08:38:59.440Z,1031.155
2017-05-16T08:41:54.305Z,1031.174
2017-05-16T08:44:49.208Z,1031.211
2017-05-16T08:47:44.120Z,1031.193
2017-05-16T08:50:39.078Z,1031.194
2017-05-16T08:53:33.914Z,1031.201
2017-05-16T08:56:28.835Z,1031.211
2017-05-16T08:59:24.019Z,1031.251
2017-05-16T09:02:18.992Z,1031.281
2017-05-16T09:05:14.030Z,1031.307
2017-05-16T09:08:08.856Z,1031.342
2017-05-16T09:11:03.950Z,1031.317
2017-05-16T09:13:58.911Z,1031.324
2017-05-16T09:16:53.896Z,1031.319
2017-05-16T09:19:48.833Z,1031.304
2017-05-16T09:22:43.793Z,1031.333
2017-05-16T09:25:38.690Z,1031.320
2017-05-16T09:28:33.699Z,1031.360
2017-05-16T09:31:28.572Z,1031.375
2017-05-16T09:34:23.748Z,1031.362
2017-05-16T09:37:18.633Z,1031.350
2017-05-16T09:43:08.421Z,1031.324
2017-05-16T09:46:03.375Z,1031.331
2017-05-16T09:48:58.357Z,1031.322
2017-05-16T09:51:53.337Z,1031.297
2017-05-16T09:54:48.244Z,1031.278
2017-05-16T09:57:43.095Z,1031.269
2017-05-16T10:03:33.027Z,1031.284
2017-05-16T10:06:27.921Z,1031.283
2017-05-16T10:09:22.873Z,1031.285
2017-05-16T10:12:51.599Z,1031.307
2017-05-16T10:16:34.943Z,1031.275
2017-05-16T10:19:20.543Z,1031.259
2017-05-16T10:23:23.070Z,1031.261
2017-05-16T10:26:08.400Z,1031.258
2017-05-16T10:31:07.208Z,1031.257
2017-05-16T10:39:41.946Z,1031.221
2017-05-16T10:42:25.604Z,1031.218
2017-05-16T10:45:19.590Z,1031.245
2017-05-16T10:48:13.984Z,1031.265
2017-05-16T10:51:08.858Z,1031.279
2017-05-16T10:58:00.998Z,1031.288
2017-05-16T11:00:56.257Z,1031.275
2017-05-16T11:10:09.857Z,1031.175
2017-05-16T11:16:16.893Z,1031.179
2017-05-16T11:19:00.687Z,1031.192
2017-05-16T11:21:54.756Z,1031.177
2017-05-16T11:24:49.241Z,1031.186
2017-05-16T11:27:43.978Z,1031.173
2017-05-16T11:30:38.741Z,1031.177
2017-05-16T11:35:26.593Z,1031.164
2017-05-16T11:39:30.230Z,1031.130
2017-05-16T11:42:14.975Z,1031.119
2017-05-16T11:45:09.296Z,1031.070
2017-05-16T11:50:30.823Z,1031.036
2017-05-16T11:53:26.345Z,1030.989
2017-05-16T11:56:15.818Z,1030.938
2017-05-16T11:59:10.454Z,1030.895
2017-05-16T12:02:05.149Z,1030.879
2017-05-16T12:05:11.187Z,1030.793
2017-05-16T12:17:59.975Z,1030.632
2017-05-16T12:22:25.198Z,1030.562
2017-05-16T12:25:09.367Z,1030.521
2017-05-16T12:28:03.653Z,1030.523
2017-05-16T12:30:58.031Z,1030.509
2017-05-16T12:33:52.591Z,1030.557
2017-05-16T12:36:47.251Z,1030.535
2017-05-16T12:53:16.483Z,1030.428
2017-05-16T13:10:17.742Z,1030.293
2017-05-16T13:13:57.447Z,1030.256
2017-05-16T13:16:42.382Z,1030.260
2017-05-16T13:19:36.515Z,1030.238
2017-05-16T13:22:42.266Z,1030.221
2017-05-16T13:35:19.620Z,1030.095
2017-05-16T13:42:11.669Z,1030.048
2017-05-16T13:44:55.322Z,1030.067
2017-05-16T13:49:53.385Z,1030.033
2017-05-16T13:53:00.212Z,1029.977
2017-05-16T13:55:47.564Z,1029.985
2017-05-16T13:58:42.074Z,1029.978
2017-05-16T14:04:26.279Z,1029.943
2017-05-16T14:09:14.655Z,1029.898
2017-05-16T14:14:03.110Z,1029.853
2017-05-16T14:16:47.273Z,1029.827
2017-05-16T14:19:41.530Z,1029.823
2017-05-16T14:24:17.704Z,1029.800
2017-05-16T14:27:02.307Z,1029.846
2017-05-16T14:29:56.586Z,1029.811
2017-05-16T14:32:51.238Z,1029.839
2017-05-16T14:35:45.940Z,1029.833
2017-05-16T14:38:40.687Z,1029.801
2017-05-16T14:41:35.372Z,1029.796
2017-05-16T14:44:30.275Z,1029.752
2017-05-16T14:47:25.153Z,1029.741
2017-05-16T14:50:19.826Z,1029.740
2017-05-16T15:03:13.544Z,1029.626
2017-05-16T15:05:56.993Z,1029.583
2017-05-16T15:08:50.777Z,1029.549
2017-05-16T15:11:45.290Z,1029.562
2017-05-16T15:14:39.955Z,1029.552
2017-05-16T15:17:34.642Z,1029.538
2017-05-16T15:20:29.400Z,1029.541
2017-05-16T15:23:24.291Z,1029.538
2017-05-16T15:26:19.012Z,1029.527
2017-05-16T15:29:13.827Z,1029.519
2017-05-16T15:49:50.848Z,1029.311
2017-05-16T15:52:56.704Z,1029.280
2017-05-16T15:55:43.716Z,1029.292
2017-05-16T16:08:14.262Z,1029.230
2017-05-16T16:11:20.204Z,1029.228
2017-05-16T16:15:15.138Z,1029.258
2017-05-16T16:26:17.021Z,1029.100
2017-05-16T16:30:53.345Z,1029.056
2017-05-16T16:34:11.186Z,1029.039
2017-05-16T16:38:16.438Z,1029.039
2017-05-16T16:42:20.120Z,1028.986
2017-05-16T16:45:04.684Z,1028.965
2017-05-16T16:47:59.260Z,1028.950
2017-05-16T16:51:38.913Z,1028.973
2017-05-16T16:54:24.876Z,1028.959
2017-05-16T16:57:19.430Z,1028.965
2017-05-16T17:00:14.032Z,1028.918
2017-05-16T17:03:08.698Z,1028.891
2017-05-16T17:06:03.643Z,1028.914
2017-05-16T17:08:58.358Z,1028.904
2017-05-16T17:12:15.742Z,1028.932
2017-05-16T17:15:26.240Z,1028.950
2017-05-16T17:18:36.617Z,1028.923
2017-05-16T17:21:24.351Z,1028.963
2017-05-16T17:24:19.000Z,1028.950
2017-05-16T17:27:13.874Z,1028.912
2017-05-16T17:30:08.653Z,1028.889
2017-05-16T17:33:03.425Z,1028.915
2017-05-16T17:35:58.361Z,1028.920
2017-05-16T17:38:53.100Z,1028.868
2017-05-16T17:41:48.113Z,1028.864
2017-05-16T17:44:42.737Z,1028.868
2017-05-16T17:47:37.693Z,1028.890
2017-05-16T17:50:32.555Z,1028.865
2017-05-16T17:53:27.509Z,1028.877
2017-05-16T17:56:22.265Z,1028.838
2017-05-16T17:59:17.219Z,1028.838
2017-05-16T18:02:12.021Z,1028.871
2017-05-16T18:05:06.924Z,1028.845
2017-05-16T18:08:01.768Z,1028.876
2017-05-16T18:10:56.547Z,1028.904
2017-05-16T18:13:51.416Z,1028.935
2017-05-16T18:16:46.678Z,1028.942
2017-05-16T18:19:41.422Z,1028.930
2017-05-16T18:22:36.205Z,1028.896
2017-05-16T18:25:31.043Z,1028.943
2017-05-16T18:28:25.866Z,1028.955
2017-05-16T18:34:21.438Z,1029.014
2017-05-16T18:37:05.470Z,1028.946
2017-05-16T18:39:59.651Z,1028.955
2017-05-16T18:42:54.114Z,1028.949
2017-05-16T18:46:11.475Z,1028.989
2017-05-16T18:55:00.835Z,1029.014
2017-05-16T18:57:44.434Z,1029.023
2017-05-16T19:00:38.227Z,1029.080
2017-05-16T19:03:32.524Z,1029.088
2017-05-16T19:06:27.045Z,1029.056
2017-05-16T19:10:18.113Z,1029.113
2017-05-16T19:13:26.100Z,1029.142
2017-05-16T19:16:13.644Z,1029.197
2017-05-16T19:19:08.203Z,1029.237
2017-05-16T19:22:02.763Z,1029.262
2017-05-16T19:24:57.454Z,1029.291
2017-05-16T19:27:52.139Z,1029.269
2017-05-16T19:30:46.904Z,1029.284
2017-05-16T19:33:41.641Z,1029.308
2017-05-16T19:36:36.277Z,1029.320
2017-05-16T19:39:30.924Z,1029.318
2017-05-16T19:42:25.626Z,1029.281
2017-05-16T19:45:20.329Z,1029.284
2017-05-16T19:48:15.135Z,1029.311
2017-05-16T19:56:37.501Z,1029.333
2017-05-16T19:59:21.180Z,1029.325
2017-05-16T20:02:15.118Z,1029.289
2017-05-16T20:05:09.475Z,1029.257
2017-05-16T20:08:03.995Z,1029.232
2017-05-16T20:10:58.576Z,1029.223
2017-05-16T20:13:53.301Z,1029.235
2017-05-16T20:20:34.097Z,1029.237
2017-05-16T20:23:17.988Z,1029.254
2017-05-16T20:26:11.945Z,1029.244
2017-05-16T20:29:06.378Z,1029.217
2017-05-16T20:32:01.027Z,1029.197
2017-05-16T20:34:55.772Z,1029.193
2017-05-16T20:37:50.529Z,1029.179
2017-05-16T20:43:34.723Z,1029.192
2017-05-16T20:46:18.756Z,1029.137
2017-05-16T20:49:12.859Z,1029.141
2017-05-16T20:52:07.355Z,1029.130
2017-05-16T20:55:02.062Z,1029.189
2017-05-16T20:57:56.751Z,1029.175
2017-05-16T21:04:37.560Z,1029.130
2017-05-16T21:07:21.372Z,1029.104
2017-05-16T21:10:15.437Z,1029.079
2017-05-16T21:13:09.956Z,1029.102
2017-05-16T21:16:04.643Z,1029.146
2017-05-16T21:18:59.431Z,1029.204
2017-05-16T21:21:54.140Z,1029.182
2017-05-16T21:27:43.492Z,1029.160
2017-05-16T21:30:38.245Z,1029.171
2017-05-16T21:33:33.022Z,1029.177
2017-05-16T21:36:27.682Z,1029.212
2017-05-16T21:39:22.344Z,1029.227
2017-05-16T21:42:17.104Z,1029.202
2017-05-16T21:45:11.743Z,1029.203
2017-05-16T21:48:06.572Z,1029.226
2017-05-16T21:51:12.726Z,1029.249
2017-05-16T21:54:02.632Z,1029.253
2017-05-16T21:56:57.353Z,1029.233
2017-05-16T21:59:52.153Z,1029.222
2017-05-16T22:02:46.895Z,1029.209
2017-05-16T22:05:41.749Z,1029.182
2017-05-16T22:08:36.434Z,1029.146
2017-05-16T22:11:31.297Z,1029.091
2017-05-16T22:14:26.017Z,1029.105
2017-05-16T22:17:20.724Z,1029.111
2017-05-16T22:20:15.517Z,1029.132
2017-05-16T22:23:10.249Z,1029.112
2017-05-16T22:26:05.036Z,1029.089
2017-05-16T22:28:59.817Z,1029.058
2017-05-16T22:31:54.565Z,1029.032
2017-05-16T22:34:49.239Z,1029.027
2017-05-16T22:37:44.179Z,1028.990
2017-05-16T22:40:38.927Z,1028.978
2017-05-16T22:43:33.777Z,1028.971
2017-05-16T22:46:28.743Z,1028.940
2017-05-16T22:49:23.569Z,1028.955
2017-05-16T22:52:18.246Z,1028.952
2017-05-16T22:55:12.982Z,1028.929
2017-05-16T22:58:07.707Z,1028.884
2017-05-16T23:01:02.511Z,1028.867
2017-05-16T23:03:57.175Z,1028.835
2017-05-16T23:06:52.000Z,1028.775
2017-05-16T23:09:46.805Z,1028.754
2017-05-16T23:12:41.614Z,1028.745
2017-05-16T23:15:36.357Z,1028.724
2017-05-16T23:18:31.278Z,1028.712
2017-05-16T23:21:25.890Z,1028.691
2017-05-16T23:24:20.694Z,1028.701
2017-05-16T23:27:15.464Z,1028.686
2017-05-16T23:30:10.119Z,1028.662
2017-05-16T23:33:04.760Z,1028.638
2017-05-16T23:35:59.496Z,1028.594
2017-05-16T23:38:54.264Z,1028.590
2017-05-16T23:41:49.099Z,1028.568
2017-05-16T23:44:43.821Z,1028.521
2017-05-16T23:47:38.631Z,1028.463
2017-05-16T23:50:33.318Z,1028.425
2017-05-16T23:53:28.220Z,1028.362
2017-05-16T23:56:23.016Z,1028.352
2017-05-16T23:59:17.795Z,1028.372
